Flight Track Log - Related Links

Times and Time Zones

All times are in EDT time to prevent confusion due to time zone crossing. See the EJA646 flight status page for this flight to view local times or setup timezone preferences in your user account.

Time Position Orientation Groundspeed Altitude Reporting Facility
EDT Latitude Longitude Course Direction KTS MPH feet Rate Location/Type
Sun 10:17:51 AM 24.9075 -76.5333 285° West 410 472 12,500  Level Miami Center
Sun 10:18:51 AM 24.9014 -76.6367 266° West 374 430 12,800 750 Climbing Miami Center
Sun 10:19:51 AM 24.9683 -76.7097 315° West 308 354 14,000 1,600 Climbing Miami Center
Sun 10:20:51 AM 25.0561 -76.7486 338° Northwest 306 352 16,000 1,950 Climbing Miami Center
Sun 10:21:00 AM 24.9038 -76.8844 283° West  Level FlightAware Approximate
Sun 10:21:51 AM 25.1461 -76.7853 340° North 316 364 17,900  Level Miami Center
Sun 10:22:00 AM 24.9289 -77.0011 283° West  Level FlightAware Approximate
Sun 10:22:51 AM 25.2339 -76.8219 339° North 326 375 19,500  Level Miami Center
Sun 10:23:00 AM 24.9544 -77.1176 285° West  Level FlightAware Approximate
Sun 10:23:51 AM 25.3258 -76.8564 341° North 340 391 21,100  Level Miami Center
Sun 10:24:51 AM 25.4178 -76.8794 347° North 340 391 22,600 1,500 Climbing Miami Center
Sun 10:25:51 AM 25.5075 -76.9047 346° North 340 391 24,100 1,600 Climbing Miami Center
Sun 10:26:51 AM 25.5953 -76.9303 345° North 335 386 25,800 1,800 Climbing Miami Center
Sun 10:27:51 AM 25.6831 -76.9533 347° North 330 380 27,700 1,850 Climbing Miami Center
Sun 10:28:51 AM 25.7708 -76.9786 345° North 320 368 29,500 1,500 Climbing Miami Center
Sun 10:29:51 AM 25.8608 -77.0019 347° North 320 368 30,700 1,050 Climbing Miami Center
Sun 10:30:51 AM 25.9569 -77.0275 347° North 334 384 31,600 1,000 Climbing Miami Center
Sun 10:31:51 AM 26.0592 -77.0578 345° North 356 410 32,700 1,000 Climbing Miami Center
Sun 10:32:51 AM 26.1636 -77.0856 347° North 368 423 33,600 950 Climbing Miami Center
Sun 10:33:51 AM 26.2681 -77.1136 346° North 375 432 34,600 1,000 Climbing Miami Center
Sun 10:34:51 AM 26.3703 -77.1439 345° North 375 432 35,600 1,000 Climbing Miami Center
Sun 10:35:51 AM 26.4728 -77.1744 345° North 375 432 36,600 1,000 Climbing Miami Center
Sun 10:36:51 AM 26.5750 -77.2003 347° North 375 432 37,600 1,000 Climbing Miami Center
Sun 10:37:51 AM 26.6731 -77.2308 344° North 375 432 38,600 1,000 Climbing Miami Center
Sun 10:38:51 AM 26.7692 -77.2567 347° North 370 426 39,600 850 Climbing Miami Center
Sun 10:39:51 AM 26.8631 -77.2825 346° North 357 411 40,300 600 Climbing Miami Center
Sun 10:40:51 AM 26.9592 -77.3039 349° North 351 404 40,800 350 Climbing Miami Center
Sun 10:41:51 AM 27.0572 -77.3417 341° North 356 410 41,000 100 Climbing Miami Center
Sun 10:42:51 AM 27.1594 -77.3606 351° North 362 417 41,000  Level Miami Center
Sun 10:43:51 AM 27.2658 -77.3939 344° North 377 434 41,000  Level Miami Center
Sun 10:44:51 AM 27.3764 -77.4200 348° North 388 447 41,000  Level Miami Center
Sun 10:45:51 AM 27.4703 -77.4464 346° North 394 453 41,000  Level Miami Center
Sun 10:46:51 AM 27.5914 -77.4844 344° North 399 459 41,000  Level Miami Center
Sun 10:47:51 AM 27.6853 -77.5131 345° North 392 451 41,000  Level Miami Center
Sun 10:48:51 AM 27.7894 -77.5419 346° North 380 437 41,000  Level Miami Center
Sun 10:49:51 AM 27.8936 -77.5731 345° North 385 443 41,000 -50 Level Miami Center
Sun 10:50:51 AM 28.0042 -77.6019 347° North 382 440 40,900  Descending Miami Center
Sun 10:51:51 AM 28.1064 -77.6308 346° North 394 453 41,000 50 Climbing Miami Center
Sun 10:52:51 AM 28.2211 -77.6411 355° North 413 475 41,000  Level Miami Center
Sun 10:53:51 AM 28.3256 -77.6442 359° North 403 464 41,000  Level Miami Center
Sun 10:54:51 AM 28.4550 -77.6522 357° North 402 463 41,000  Level Miami Center
Sun 10:55:51 AM 28.5717 -77.6575 358° North 399 459 41,000  Level Miami Center
Sun 10:56:51 AM 28.6844 -77.6631 358° North 409 471 41,000  Level Miami Center
Sun 10:57:51 AM 28.7950 -77.6686 357° North 402 463 41,000  Level Miami Center
Sun 10:58:51 AM 28.9078 -77.6742 358° North 393 452 41,000  Level Miami Center
Sun 10:59:51 AM 29.0267 -77.6847 356° North 408 470 41,000  Level Miami Center
Sun 11:00:51 AM 29.1350 -77.6856 360° North 407 468 41,000  Level Miami Center
Sun 11:01:51 AM 29.2497 -77.6933 357° North 402 463 41,000  Level Miami Center
Sun 11:02:51 AM 29.3625 -77.7014 356° North 402 463 41,000  Level Miami Center
Sun 11:04:44 AM 29.5747 -77.7067 359° North 403 464 41,000  Level Jacksonville Center
Sun 11:05:44 AM 29.6897 -77.7125 357° North 408 470 41,000  Level Jacksonville Center
Sun 11:06:44 AM 29.7919 -77.7167 358° North 415 478 41,000  Level Jacksonville Center
Sun 11:07:44 AM 29.9069 -77.7225 357° North 406 467 41,000  Level Jacksonville Center
Sun 11:08:44 AM 30.0200 -77.7258 359° North 414 476 41,000  Level Jacksonville Center
Sun 11:09:44 AM 30.1392 -77.7364 356° North 414 476 41,000  Level Jacksonville Center
Sun 11:10:44 AM 30.2664 -77.7344 North 403 464 41,000  Level Jacksonville Center
Sun 11:11:44 AM 30.3814 -77.7403 357° North 423 487 41,000  Level Jacksonville Center
Sun 11:12:44 AM 30.4986 -77.7458 358° North 424 488 41,000  Level Jacksonville Center
Sun 11:13:44 AM 30.6117 -77.7567 355° North 424 488 41,000  Level Jacksonville Center
Sun 11:14:44 AM 30.7267 -77.7625 358° North 419 482 41,000  Level Jacksonville Center
Sun 11:15:44 AM 30.8442 -77.7731 356° North 419 482 41,000  Level Jacksonville Center
Sun 11:16:44 AM 30.9592 -77.7767 358° North 413 475 41,000  Level Jacksonville Center
Sun 11:17:44 AM 31.0744 -77.7897 354° North 413 475 41,000  Level Jacksonville Center
Sun 11:18:44 AM 31.1917 -77.7981 357° North 413 475 41,000  Level Jacksonville Center
Sun 11:19:44 AM 31.3086 -77.7989 360° North 413 475 41,000  Level Jacksonville Center
Sun 11:20:44 AM 31.4258 -77.8094 356° North 413 475 41,000  Level Jacksonville Center
Sun 11:21:44 AM 31.5428 -77.8081 North 418 481 41,000  Level Jacksonville Center
Sun 11:22:44 AM 31.6578 -77.8139 358° North 418 481 41,000  Level Jacksonville Center
Sun 11:23:44 AM 31.7750 -77.8222 357° North 418 481 41,000  Level Jacksonville Center
Sun 11:24:44 AM 31.8881 -77.8306 356° North 418 481 41,000  Level Jacksonville Center
Sun 11:25:44 AM 32.0053 -77.8389 357° North 418 481 41,000  Level Jacksonville Center
Sun 11:26:44 AM 32.1222 -77.8447 358° North 418 481 41,000  Level Jacksonville Center
Sun 11:27:44 AM 32.2392 -77.8481 359° North 424 488 41,000  Level Jacksonville Center
Sun 11:28:44 AM 32.3547 -77.8614 354° North 424 488 41,000  Level Jacksonville Center
Sun 11:29:44 AM 32.4717 -77.8622 360° North 424 488 41,000  Level Jacksonville Center
Sun 11:30:44 AM 32.5889 -77.8731 356° North 424 488 41,000 -50 Level Jacksonville Center
Sun 11:31:44 AM 32.7058 -77.8764 359° North 424 488 40,900 -550 Descending Jacksonville Center
Sun 11:32:44 AM 32.8253 -77.8869 356° North 424 488 39,900 -1,250 Descending Jacksonville Center
Sun 11:33:44 AM 32.9464 -77.8925 358° North 429 494 38,400 -1,850 Descending Jacksonville Center
Sun 11:34:44 AM 33.0700 -77.9006 357° North 434 499 36,200 -2,200 Descending Jacksonville Center
Sun 11:35:44 AM 33.1911 -77.9061 358° North 434 499 34,000 -2,200 Descending Jacksonville Center
Sun 11:36:44 AM 33.3125 -77.9169 356° North 434 499 31,800 -2,300 Descending Jacksonville Center
Sun 11:37:44 AM 33.4339 -77.9225 358° North 434 499 29,400 -2,400 Descending Jacksonville Center
Sun 11:38:44 AM 33.5553 -77.9306 357° North 434 499 27,000 -2,152 Descending Jacksonville Center
Sun 11:39:16 AM 33.6147 -77.9356 356° North 436 502 26,100 -2,413 Descending Washington Center
Sun 11:40:16 AM 33.7233 -77.9414 357° North 436 502 23,300 -2,900 Descending Washington Center
Sun 11:41:16 AM 33.8356 -77.9494 357° North 424 488 20,300 -3,050 Descending Washington Center
Sun 11:42:16 AM 33.9461 -77.9550 358° North 407 468 17,200 -3,350 Descending Washington Center
Sun 11:43:16 AM 34.0544 -77.9581 359° North 379 436 13,600 -3,570 Descending Washington Center
Sun 11:44:17 AM 34.1442 -77.9656 356° North 341 392 10,000 -3,300 Descending Washington Center
Sun 11:45:16 AM 34.2011 -78.0325 316° Northwest 280 322 7,000 -2,773 Descending Washington Center
Sun 11:46:16 AM 34.1956 -78.1103 265° West 207 238 4,500 -2,050 Descending Washington Center
Sun 11:47:16 AM 34.1544 -78.0714 142° Southeast 37 43 2,900 -1,050 Descending Washington Center
Sun 11:48:16 AM 34.1806 -78.0219 57° Northeast 65 75 2,400 -600 Descending Washington Center
Sun 11:49:16 AM 34.2064 -77.9875 48° Northeast 107 123 1,700 -700 Descending Washington Center

Login

Don't have an account? Register now (free) for customized features, flight alerts, and more!